createdAt,value
2018-07-11T00:00:16.720Z,20.26
2018-07-11T00:02:47.775Z,20.24
2018-07-11T00:05:18.970Z,20.36
2018-07-11T00:07:49.955Z,20.38
2018-07-11T00:10:21.364Z,20.42
2018-07-11T00:12:52.426Z,20.43
2018-07-11T00:15:23.399Z,20.44
2018-07-11T00:17:54.616Z,20.47
2018-07-11T00:20:25.759Z,20.37
2018-07-11T00:22:56.712Z,20.34
2018-07-11T00:25:30.031Z,20.30
2018-07-11T00:28:01.818Z,20.23
2018-07-11T00:30:32.977Z,20.18
2018-07-11T00:33:04.135Z,20.18
2018-07-11T00:35:35.191Z,20.20
2018-07-11T00:38:06.255Z,20.22
2018-07-11T00:40:37.492Z,20.30
2018-07-11T00:43:08.616Z,20.18
2018-07-11T00:45:40.112Z,20.03
2018-07-11T00:48:11.145Z,20.04
2018-07-11T00:50:42.853Z,19.98
2018-07-11T00:53:14.388Z,19.96
2018-07-11T00:55:48.216Z,19.98
2018-07-11T00:58:29.137Z,20.04
2018-07-11T01:01:11.384Z,20.10
2018-07-11T01:03:44.027Z,20.17
2018-07-11T01:06:14.876Z,20.14
2018-07-11T01:08:46.210Z,20.16
2018-07-11T01:11:18.913Z,20.05
2018-07-11T01:13:50.148Z,19.95
2018-07-11T01:16:22.649Z,20.03
2018-07-11T01:19:06.625Z,20.02
2018-07-11T01:21:38.962Z,20.05
2018-07-11T01:24:11.289Z,20.10
2018-07-11T01:26:42.588Z,19.96
2018-07-11T01:29:13.708Z,19.96
2018-07-11T01:31:44.980Z,20.10
2018-07-11T01:34:16.083Z,20.07
2018-07-11T01:36:50.259Z,20.11
2018-07-11T01:39:21.479Z,20.04
2018-07-11T01:41:52.677Z,20.10
2018-07-11T01:44:23.743Z,20.12
2018-07-11T01:46:55.035Z,20.23
2018-07-11T01:49:25.840Z,20.18
2018-07-11T01:52:07.520Z,20.11
2018-07-11T01:54:38.899Z,20.20
2018-07-11T01:57:10.946Z,20.30
2018-07-11T01:59:42.164Z,20.33
2018-07-11T02:02:13.754Z,20.31
2018-07-11T02:04:45.240Z,20.37
2018-07-11T02:07:17.357Z,20.37
2018-07-11T02:09:49.190Z,20.31
2018-07-11T02:12:20.429Z,20.41
2018-07-11T02:15:10.993Z,20.40
2018-07-11T02:17:43.307Z,20.45
2018-07-11T02:20:16.568Z,20.49
2018-07-11T02:22:54.433Z,20.45
2018-07-11T02:25:25.673Z,20.44
2018-07-11T02:27:57.685Z,20.37
2018-07-11T02:30:29.180Z,20.36
2018-07-11T02:33:00.314Z,20.41
2018-07-11T02:35:31.323Z,20.31
2018-07-11T02:38:02.429Z,20.29
2018-07-11T02:40:34.085Z,20.15
2018-07-11T02:43:05.210Z,20.17
2018-07-11T02:45:36.258Z,20.14
2018-07-11T02:48:07.441Z,20.02
2018-07-11T02:50:38.535Z,20.07
2018-07-11T02:53:10.607Z,20.04
2018-07-11T02:55:41.583Z,19.96
2018-07-11T02:58:13.535Z,20.07
2018-07-11T03:00:44.549Z,20.15
2018-07-11T03:03:16.673Z,20.16
2018-07-11T03:05:47.665Z,20.33
2018-07-11T03:08:19.224Z,20.45
2018-07-11T03:10:50.267Z,20.51
2018-07-11T03:13:22.637Z,20.74
2018-07-11T03:15:53.769Z,21.33
2018-07-11T03:18:25.779Z,22.13
2018-07-11T03:20:57.056Z,22.88
2018-07-11T03:23:29.098Z,23.99
2018-07-11T03:26:00.735Z,25.14
2018-07-11T03:28:33.188Z,26.02
2018-07-11T03:31:04.079Z,26.89
2018-07-11T03:33:34.904Z,27.93
2018-07-11T03:36:06.236Z,28.69
2018-07-11T03:38:37.653Z,29.56
2018-07-11T03:41:08.420Z,30.69
2018-07-11T03:43:39.508Z,31.71
2018-07-11T03:46:10.376Z,32.49
2018-07-11T03:48:41.368Z,32.54
2018-07-11T03:51:12.648Z,32.88
2018-07-11T03:53:44.539Z,32.65
2018-07-11T03:56:15.512Z,32.90
2018-07-11T03:58:48.739Z,30.97
2018-07-11T04:01:19.810Z,31.23
2018-07-11T04:03:51.317Z,30.94
2018-07-11T04:06:22.449Z,32.07
2018-07-11T04:08:53.380Z,33.00
2018-07-11T04:11:24.319Z,34.18
2018-07-11T04:13:55.316Z,35.41
2018-07-11T04:16:27.233Z,36.02
2018-07-11T04:18:58.155Z,36.56
2018-07-11T04:21:30.083Z,36.81
2018-07-11T04:24:01.341Z,37.48
2018-07-11T04:26:32.301Z,37.56
2018-07-11T04:29:04.301Z,37.80
2018-07-11T04:31:36.489Z,38.72
2018-07-11T04:34:07.883Z,38.10
2018-07-11T04:36:39.224Z,35.28
2018-07-11T04:39:11.187Z,35.40
2018-07-11T04:41:42.232Z,35.79
2018-07-11T04:44:13.642Z,37.72
2018-07-11T04:46:45.513Z,36.81
2018-07-11T04:49:16.892Z,38.25
2018-07-11T04:51:48.506Z,40.11
2018-07-11T04:54:20.128Z,41.12
2018-07-11T04:56:51.853Z,42.00
2018-07-11T04:59:24.748Z,41.86
2018-07-11T05:01:55.608Z,41.81
2018-07-11T05:04:27.194Z,42.85
2018-07-11T05:06:58.311Z,43.32
2018-07-11T05:09:30.440Z,43.09
2018-07-11T05:12:01.352Z,42.80
2018-07-11T05:14:32.414Z,41.35
2018-07-11T05:17:03.200Z,39.55
2018-07-11T05:19:34.779Z,35.72
2018-07-11T05:22:05.880Z,35.04
2018-07-11T05:24:37.882Z,36.79
2018-07-11T05:27:08.971Z,38.50
2018-07-11T05:29:42.235Z,37.30
2018-07-11T05:32:13.172Z,37.73
2018-07-11T05:34:44.311Z,39.60
2018-07-11T05:37:15.425Z,40.25
2018-07-11T05:39:48.206Z,40.52
2018-07-11T05:42:19.351Z,41.84
2018-07-11T05:44:50.629Z,41.17
2018-07-11T05:47:22.718Z,38.64
2018-07-11T05:49:53.815Z,41.32
2018-07-11T05:52:25.087Z,42.52
2018-07-11T05:54:56.463Z,42.59
2018-07-11T05:57:28.260Z,43.09
2018-07-11T06:00:00.209Z,42.40
2018-07-11T06:02:31.296Z,42.71
2018-07-11T06:05:02.673Z,44.11
2018-07-11T06:07:33.881Z,42.72
2018-07-11T06:10:04.792Z,42.60
2018-07-11T06:12:35.926Z,41.65
2018-07-11T06:15:08.184Z,43.85
2018-07-11T06:17:39.256Z,41.14
2018-07-11T06:20:10.357Z,42.75
2018-07-11T06:22:41.382Z,42.27
2018-07-11T06:25:12.780Z,40.19
2018-07-11T06:27:44.040Z,38.33
2018-07-11T06:30:16.939Z,37.28
2018-07-11T06:32:47.918Z,36.66
2018-07-11T06:35:18.927Z,36.99
2018-07-11T06:37:49.899Z,36.46
2018-07-11T06:40:21.672Z,36.05
2018-07-11T06:42:53.039Z,36.64
2018-07-11T06:45:25.976Z,37.91
2018-07-11T06:47:57.061Z,38.19
2018-07-11T06:50:29.451Z,38.35
2018-07-11T06:53:01.413Z,39.76
2018-07-11T06:55:33.537Z,38.98
2018-07-11T06:58:04.503Z,40.69
2018-07-11T07:00:36.555Z,40.60
2018-07-11T07:03:07.756Z,40.57
2018-07-11T07:05:39.608Z,42.54
2018-07-11T07:08:11.527Z,43.27
2018-07-11T07:10:42.532Z,42.43
2018-07-11T07:13:13.583Z,42.39
2018-07-11T07:15:44.623Z,42.66
2018-07-11T07:18:15.534Z,43.51
2018-07-11T07:20:46.671Z,43.45
2018-07-11T07:23:18.178Z,43.59
2018-07-11T07:25:50.114Z,42.06
2018-07-11T07:28:22.067Z,41.99
2018-07-11T07:30:54.080Z,41.39
2018-07-11T07:33:25.225Z,39.71
2018-07-11T07:35:56.293Z,39.12
2018-07-11T07:38:27.810Z,38.29
2018-07-11T07:41:00.770Z,38.55
2018-07-11T07:43:32.428Z,40.13
2018-07-11T07:46:04.049Z,39.94
2018-07-11T07:48:35.336Z,38.96
2018-07-11T07:51:06.417Z,40.39
2018-07-11T07:53:37.496Z,38.76
2018-07-11T07:56:08.896Z,38.34
2018-07-11T07:58:40.421Z,39.45
2018-07-11T08:01:13.581Z,39.15
2018-07-11T08:03:45.156Z,36.82
2018-07-11T08:06:16.714Z,36.25
2018-07-11T08:08:48.022Z,37.46
2018-07-11T08:11:20.412Z,36.36
2018-07-11T08:13:51.626Z,34.67
2018-07-11T08:16:22.806Z,32.54
2018-07-11T08:18:53.890Z,31.24
2018-07-11T08:21:25.872Z,30.85
2018-07-11T08:24:07.568Z,29.05
2018-07-11T08:26:50.311Z,29.46
2018-07-11T08:29:31.363Z,28.82
2018-07-11T08:32:29.305Z,28.53
2018-07-11T08:35:45.528Z,28.51
2018-07-11T08:39:13.562Z,28.19
2018-07-11T08:41:55.045Z,28.30
2018-07-11T08:44:38.326Z,28.44
2018-07-11T08:48:24.603Z,28.47
2018-07-11T08:52:08.992Z,28.58
2018-07-11T08:54:51.715Z,28.61
2018-07-11T08:57:33.506Z,28.49
2018-07-11T09:00:23.396Z,28.28
2018-07-11T09:03:08.076Z,28.05
2018-07-11T09:08:56.094Z,28.57
2018-07-11T09:11:39.700Z,28.84
2018-07-11T09:14:53.864Z,28.71
2018-07-11T09:17:36.832Z,28.41
2018-07-11T09:20:16.755Z,28.61
2018-07-11T09:25:20.558Z,28.51
2018-07-11T09:27:51.784Z,29.13
2018-07-11T09:30:23.071Z,29.17
2018-07-11T09:32:54.574Z,29.55
2018-07-11T09:35:26.101Z,30.05
2018-07-11T09:37:57.725Z,30.46
2018-07-11T09:40:28.947Z,31.29
2018-07-11T09:43:00.185Z,30.72
2018-07-11T09:45:32.053Z,30.22
2018-07-11T09:48:03.832Z,29.67
2018-07-11T09:50:36.664Z,28.64
2018-07-11T09:53:08.635Z,28.80
2018-07-11T09:55:40.332Z,28.98
2018-07-11T09:58:11.768Z,29.39
2018-07-11T10:00:48.299Z,29.82
2018-07-11T10:03:19.687Z,30.17
2018-07-11T10:05:51.113Z,30.18
2018-07-11T10:08:22.652Z,30.24
2018-07-11T10:10:54.731Z,30.58
2018-07-11T10:13:27.171Z,30.69
2018-07-11T10:15:58.723Z,30.52
2018-07-11T10:18:29.891Z,30.44
2018-07-11T10:21:01.254Z,30.29
2018-07-11T10:23:33.034Z,30.23
2018-07-11T10:26:04.035Z,30.37
2018-07-11T10:28:35.316Z,30.41
2018-07-11T10:31:06.413Z,30.39
2018-07-11T10:33:37.839Z,30.33
2018-07-11T10:36:09.163Z,30.33
2018-07-11T10:38:40.318Z,29.83
2018-07-11T10:41:11.460Z,29.92
2018-07-11T10:43:54.659Z,30.11
2018-07-11T10:46:26.936Z,30.12
2018-07-11T10:48:58.163Z,30.13
2018-07-11T10:51:29.332Z,30.17
2018-07-11T10:54:00.746Z,30.53
2018-07-11T10:56:32.405Z,30.67
2018-07-11T10:59:03.764Z,30.85
2018-07-11T11:01:35.857Z,31.06
2018-07-11T11:04:07.265Z,31.02
2018-07-11T11:06:38.478Z,31.10
2018-07-11T11:09:09.614Z,30.96
2018-07-11T11:11:44.201Z,30.95
2018-07-11T11:14:15.697Z,30.76
2018-07-11T11:16:47.024Z,30.87
2018-07-11T11:19:18.733Z,30.52
2018-07-11T11:21:50.627Z,30.33
2018-07-11T11:24:22.188Z,30.29
2018-07-11T11:26:54.298Z,30.59
2018-07-11T11:29:25.468Z,30.96
2018-07-11T11:31:57.818Z,31.19
2018-07-11T11:34:29.244Z,31.33
2018-07-11T11:37:00.539Z,31.22
2018-07-11T11:39:32.169Z,31.33
2018-07-11T11:42:03.577Z,31.37
2018-07-11T11:44:34.532Z,31.38
2018-07-11T11:47:06.395Z,31.21
2018-07-11T11:49:37.833Z,31.00
2018-07-11T11:52:08.984Z,30.86
2018-07-11T11:54:40.382Z,30.75
2018-07-11T11:57:12.400Z,30.68
2018-07-11T11:59:44.594Z,30.79
2018-07-11T12:02:16.867Z,30.68
2018-07-11T12:04:48.019Z,30.30
2018-07-11T12:07:19.309Z,30.30
2018-07-11T12:09:50.538Z,30.23
2018-07-11T12:12:21.508Z,30.20
2018-07-11T12:14:52.732Z,30.40
2018-07-11T12:17:24.525Z,30.11
2018-07-11T12:19:55.935Z,29.70
2018-07-11T12:22:28.267Z,29.88
2018-07-11T12:25:00.847Z,29.97
2018-07-11T12:27:35.864Z,29.85
2018-07-11T12:30:09.453Z,29.77
2018-07-11T12:32:41.103Z,29.69
2018-07-11T12:35:12.546Z,29.62
2018-07-11T12:37:44.423Z,29.55
2018-07-11T12:40:15.457Z,29.40
2018-07-11T12:42:47.853Z,29.68
2018-07-11T12:45:19.009Z,30.11
2018-07-11T12:47:55.714Z,30.08
2018-07-11T12:50:27.171Z,29.96
2018-07-11T12:52:58.844Z,29.89
2018-07-11T12:55:31.012Z,29.77
2018-07-11T12:58:06.715Z,29.99
2018-07-11T13:00:38.202Z,30.17
2018-07-11T13:03:10.966Z,30.44
2018-07-11T13:05:44.032Z,30.45
2018-07-11T13:08:16.005Z,30.27
2018-07-11T13:10:47.245Z,30.07
2018-07-11T13:13:18.703Z,30.24
2018-07-11T13:15:50.357Z,30.28
2018-07-11T13:18:22.056Z,30.43
2018-07-11T13:20:53.390Z,30.37
2018-07-11T13:23:25.989Z,30.35
2018-07-11T13:25:57.598Z,30.13
2018-07-11T13:28:29.492Z,29.83
2018-07-11T13:31:00.780Z,29.82
2018-07-11T13:33:33.113Z,29.72
2018-07-11T13:36:04.419Z,29.77
2018-07-11T13:38:36.584Z,29.94
2018-07-11T13:41:07.939Z,29.64
2018-07-11T13:43:39.331Z,29.63
2018-07-11T13:46:10.673Z,29.80
2018-07-11T13:48:41.837Z,29.72
2018-07-11T13:51:13.716Z,29.69
2018-07-11T13:53:46.154Z,29.53
2018-07-11T13:56:18.183Z,29.63
2018-07-11T13:58:50.160Z,29.69
2018-07-11T14:01:21.622Z,29.84
2018-07-11T14:03:53.111Z,29.49
2018-07-11T14:06:25.158Z,29.53
2018-07-11T14:08:57.100Z,29.57
2018-07-11T14:11:29.433Z,29.65
2018-07-11T14:14:00.899Z,29.49
2018-07-11T14:16:33.411Z,29.64
2018-07-11T14:19:04.719Z,29.44
2018-07-11T14:21:36.008Z,29.48
2018-07-11T14:24:07.528Z,29.55
2018-07-11T14:26:38.741Z,29.58
2018-07-11T14:29:11.192Z,29.60
2018-07-11T14:31:42.672Z,29.57
2018-07-11T14:34:15.857Z,29.55
2018-07-11T14:36:47.080Z,29.64
2018-07-11T14:39:19.357Z,29.80
2018-07-11T14:41:50.567Z,29.75
2018-07-11T14:44:23.181Z,29.39
2018-07-11T14:46:55.090Z,29.30
2018-07-11T14:49:26.620Z,29.12
2018-07-11T14:51:58.019Z,29.20
2018-07-11T14:54:29.913Z,29.28
2018-07-11T14:57:01.565Z,29.17
2018-07-11T14:59:33.292Z,28.92
2018-07-11T15:02:04.881Z,28.79
2018-07-11T15:04:37.469Z,28.66
2018-07-11T15:07:09.336Z,28.53
2018-07-11T15:09:42.484Z,28.44
2018-07-11T15:12:13.900Z,28.22
2018-07-11T15:14:45.266Z,28.33
2018-07-11T15:17:17.713Z,28.39
2018-07-11T15:19:49.413Z,28.35
2018-07-11T15:22:21.000Z,28.21
2018-07-11T15:24:52.973Z,28.23
2018-07-11T15:27:25.485Z,28.10
2018-07-11T15:29:58.986Z,27.98
2018-07-11T15:32:31.954Z,27.82
2018-07-11T15:35:05.466Z,27.70
2018-07-11T15:37:39.662Z,27.45
2018-07-11T15:40:12.239Z,27.33
2018-07-11T15:42:44.831Z,27.47
2018-07-11T15:45:17.624Z,27.51
2018-07-11T15:47:52.574Z,27.52
2018-07-11T15:50:24.213Z,27.48
2018-07-11T15:52:56.352Z,27.52
2018-07-11T15:55:30.096Z,27.59
2018-07-11T15:58:06.615Z,27.52
2018-07-11T16:00:42.563Z,27.29
2018-07-11T16:03:15.355Z,27.28
2018-07-11T16:05:47.856Z,27.32
2018-07-11T16:08:20.846Z,27.43
2018-07-11T16:10:53.551Z,27.60
2018-07-11T16:13:24.702Z,27.53
2018-07-11T16:15:57.541Z,27.54
2018-07-11T16:18:31.067Z,27.36
2018-07-11T16:21:03.081Z,27.36
2018-07-11T16:23:34.798Z,27.39
2018-07-11T16:26:07.920Z,27.58
2018-07-11T16:28:40.537Z,27.64
2018-07-11T16:31:13.248Z,27.43
2018-07-11T16:33:45.439Z,27.21
2018-07-11T16:36:19.079Z,27.08
2018-07-11T16:38:50.644Z,26.84
2018-07-11T16:41:24.069Z,26.56
2018-07-11T16:43:55.635Z,26.59
2018-07-11T16:46:27.699Z,26.54
2018-07-11T16:48:59.532Z,26.32
2018-07-11T16:51:31.567Z,26.41
2018-07-11T16:54:03.565Z,26.37
2018-07-11T16:56:35.654Z,26.27
2018-07-11T16:59:07.846Z,26.26
2018-07-11T17:01:55.638Z,26.18
2018-07-11T17:04:27.882Z,26.07
2018-07-11T17:07:00.828Z,26.08
2018-07-11T17:09:38.045Z,25.98
2018-07-11T17:12:12.823Z,25.97
2018-07-11T17:14:47.237Z,25.87
2018-07-11T17:17:25.114Z,25.85
2018-07-11T17:20:08.992Z,25.86
2018-07-11T17:22:53.415Z,25.79
2018-07-11T17:25:25.395Z,25.75
2018-07-11T17:28:02.509Z,25.68
2018-07-11T17:30:42.419Z,25.55
2018-07-11T17:33:14.679Z,25.56
2018-07-11T17:35:53.166Z,25.52
2018-07-11T17:38:27.393Z,25.43
2018-07-11T17:40:59.451Z,25.35
2018-07-11T17:43:39.624Z,25.36
2018-07-11T17:46:11.314Z,25.07
2018-07-11T17:48:47.254Z,25.31
2018-07-11T17:51:28.449Z,25.26
2018-07-11T17:54:01.270Z,25.24
2018-07-11T17:57:00.587Z,25.15
2018-07-11T17:59:48.993Z,25.08
2018-07-11T18:02:27.231Z,24.97
2018-07-11T18:05:20.481Z,24.98
2018-07-11T18:07:53.544Z,24.95
2018-07-11T18:10:34.741Z,24.92
2018-07-11T18:13:34.265Z,24.87
2018-07-11T18:17:18.120Z,24.80
2018-07-11T18:21:05.268Z,24.62
2018-07-11T18:23:49.719Z,24.53
2018-07-11T18:26:38.342Z,24.47
2018-07-11T18:29:24.338Z,24.49
2018-07-11T18:32:05.285Z,24.41
2018-07-11T18:36:53.968Z,24.32
2018-07-11T18:39:29.418Z,24.10
2018-07-11T18:42:11.958Z,24.02
2018-07-11T18:45:05.682Z,24.02
2018-07-11T18:48:52.665Z,24.03
2018-07-11T18:51:43.125Z,24.08
2018-07-11T18:54:19.251Z,24.11
2018-07-11T18:57:18.124Z,24.05
2018-07-11T19:00:01.021Z,24.09
2018-07-11T19:03:12.785Z,24.07
2018-07-11T19:06:58.704Z,23.97
2018-07-11T19:09:39.826Z,23.95
2018-07-11T19:12:27.330Z,23.97
2018-07-11T19:15:10.447Z,24.01
2018-07-11T19:18:58.621Z,24.04
2018-07-11T19:22:07.811Z,24.06
2018-07-11T19:25:09.486Z,24.06
2018-07-11T19:27:49.264Z,24.03
2018-07-11T19:31:33.777Z,24.00
2018-07-11T19:34:21.925Z,24.02
2018-07-11T19:37:02.455Z,23.98
2018-07-11T19:40:52.190Z,23.90
2018-07-11T19:44:49.673Z,23.81
2018-07-11T19:47:51.784Z,23.50
2018-07-11T19:50:33.362Z,23.31
2018-07-11T19:53:16.494Z,23.38
2018-07-11T19:56:29.639Z,23.42
2018-07-11T19:59:02.033Z,23.44
2018-07-11T20:01:33.640Z,23.44
2018-07-11T20:04:05.132Z,23.52
2018-07-11T20:06:36.664Z,23.67
2018-07-11T20:09:08.576Z,23.58
2018-07-11T20:11:40.354Z,23.52
2018-07-11T20:14:12.008Z,23.46
2018-07-11T20:16:43.503Z,23.41
2018-07-11T20:19:14.978Z,23.40
2018-07-11T20:21:46.817Z,23.23
2018-07-11T20:24:18.204Z,23.28
2018-07-11T20:26:49.829Z,23.24
2018-07-11T20:29:21.136Z,23.17
2018-07-11T20:31:52.767Z,23.10
2018-07-11T20:34:24.456Z,23.01
2018-07-11T20:36:55.804Z,22.95
2018-07-11T20:39:27.172Z,22.90
2018-07-11T20:41:59.126Z,22.89
2018-07-11T20:44:31.159Z,22.86
2018-07-11T20:47:05.162Z,22.85
2018-07-11T20:49:37.087Z,22.80
2018-07-11T20:52:09.243Z,22.79
2018-07-11T20:54:40.596Z,22.76
2018-07-11T20:57:13.798Z,22.73
2018-07-11T20:59:55.868Z,22.66
2018-07-11T21:02:37.651Z,22.59
2018-07-11T21:05:25.701Z,22.57
2018-07-11T21:10:10.500Z,22.59
2018-07-11T21:12:51.326Z,22.54
2018-07-11T21:17:37.487Z,22.53
2018-07-11T21:20:08.718Z,22.46
2018-07-11T21:22:40.471Z,22.51
2018-07-11T21:25:12.118Z,22.53
2018-07-11T21:27:43.326Z,22.58
2018-07-11T21:30:14.637Z,22.63
2018-07-11T21:32:46.056Z,22.76
2018-07-11T21:35:17.221Z,22.79
2018-07-11T21:37:48.329Z,22.79
2018-07-11T21:40:19.690Z,22.79
2018-07-11T21:42:51.196Z,22.76
2018-07-11T21:45:22.911Z,22.63
2018-07-11T21:47:59.629Z,22.65
2018-07-11T21:50:30.883Z,22.62
2018-07-11T21:53:03.304Z,22.71
2018-07-11T21:55:35.452Z,22.75
2018-07-11T21:58:06.646Z,22.67
2018-07-11T22:00:40.559Z,22.48
2018-07-11T22:03:11.857Z,22.49
2018-07-11T22:05:44.189Z,22.50
2018-07-11T22:08:16.414Z,22.45
2018-07-11T22:10:47.455Z,22.38
2018-07-11T22:13:18.848Z,22.31
2018-07-11T22:15:51.753Z,22.29
2018-07-11T22:18:32.118Z,22.24
2018-07-11T22:21:01.816Z,22.23
2018-07-11T22:23:31.466Z,22.19
2018-07-11T22:26:01.588Z,22.19
2018-07-11T22:28:30.698Z,22.17
2018-07-11T22:30:59.537Z,22.14
2018-07-11T22:33:28.378Z,22.07
2018-07-11T22:35:57.090Z,21.96
2018-07-11T22:38:26.096Z,22.05
2018-07-11T22:40:55.162Z,22.13
2018-07-11T22:43:24.236Z,22.14
2018-07-11T22:45:53.444Z,22.10
2018-07-11T22:48:23.349Z,22.09
2018-07-11T22:50:52.062Z,22.15
2018-07-11T22:53:21.336Z,22.14
2018-07-11T22:55:50.645Z,22.15
2018-07-11T22:58:19.542Z,22.08
2018-07-11T23:00:48.645Z,22.06
2018-07-11T23:03:17.470Z,21.98
2018-07-11T23:05:46.311Z,22.01
2018-07-11T23:08:15.548Z,22.01
2018-07-11T23:10:44.355Z,21.95
2018-07-11T23:13:13.088Z,22.03
2018-07-11T23:15:41.972Z,22.09
2018-07-11T23:18:11.029Z,22.03
2018-07-11T23:20:39.818Z,22.03
2018-07-11T23:23:08.900Z,22.02
2018-07-11T23:25:37.957Z,22.06
2018-07-11T23:28:06.946Z,22.04
2018-07-11T23:30:35.595Z,22.06
2018-07-11T23:33:05.303Z,22.05
2018-07-11T23:35:34.091Z,21.98
2018-07-11T23:38:03.194Z,22.06
2018-07-11T23:40:31.840Z,22.05
2018-07-11T23:43:00.625Z,22.05
2018-07-11T23:45:29.542Z,22.06
2018-07-11T23:47:58.554Z,22.06
2018-07-11T23:50:27.458Z,22.07
2018-07-11T23:52:56.381Z,22.01
2018-07-11T23:55:25.343Z,21.94
2018-07-11T23:57:55.498Z,21.91
